Time;durP1;ratioP1;P1;durP2;ratioP2;P2;SDS_P1;SDS_P2;PMS_P1;PMS_P2;Temp;Humidity;BMP_temperature;BMP_pressure;BME280_temperature;BME280_humidity;BME280_pressure;Samples;Min_cycle;Max_cycle;Signal;HPM_P1;HPM_P2
2022/03/19 00:01:34;;;;;;;18.13;8.23;;;3.40;99.90;;;;;;5102627;28;20226;-71
2022/03/19 00:04:01;;;;;;;16.50;7.80;;;3.40;99.90;;;;;;5101127;28;20215;-71
2022/03/19 00:06:29;;;;;;;16.33;7.10;;;3.40;99.90;;;;;;5105107;28;20292;-71
2022/03/19 00:08:56;;;;;;;13.63;7.13;;;3.40;99.90;;;;;;5108011;28;20589;-72
2022/03/19 00:11:24;;;;;;;15.23;7.30;;;3.50;99.90;;;;;;5102511;28;20197;-72
2022/03/19 00:13:51;;;;;;;15.53;8.07;;;3.50;99.90;;;;;;5101323;28;20258;-72
2022/03/19 00:16:17;;;;;;;17.13;7.67;;;3.50;99.90;;;;;;5104313;28;20655;-72
2022/03/19 00:18:45;;;;;;;18.60;7.60;;;3.40;99.90;;;;;;5104883;28;20217;-71
2022/03/19 00:21:12;;;;;;;17.20;7.27;;;3.40;99.90;;;;;;5097317;28;20204;-71
2022/03/19 00:23:39;;;;;;;18.03;7.73;;;3.30;99.90;;;;;;5104091;28;20683;-72
2022/03/19 00:26:07;;;;;;;16.83;7.60;;;3.20;99.90;;;;;;5099217;28;20197;-71
2022/03/19 00:28:34;;;;;;;19.67;7.30;;;3.30;99.90;;;;;;5105437;28;20377;-71
2022/03/19 00:31:01;;;;;;;15.20;7.10;;;3.20;99.90;;;;;;5103508;28;20197;-72
2022/03/19 00:33:28;;;;;;;14.63;6.93;;;3.20;99.90;;;;;;5104598;28;20652;-72
2022/03/19 00:35:56;;;;;;;19.17;7.30;;;3.30;99.90;;;;;;5102599;28;20201;-72
2022/03/19 00:38:23;;;;;;;14.13;6.50;;;3.40;99.90;;;;;;5105123;28;20218;-72
2022/03/19 00:40:51;;;;;;;15.00;7.00;;;3.40;99.90;;;;;;5101958;28;20205;-72
2022/03/19 00:43:20;;;;;;;13.00;6.67;;;3.40;99.90;;;;;;5099659;28;20221;-72
2022/03/19 00:45:46;;;;;;;21.77;7.67;;;3.40;99.90;;;;;;5103054;28;20206;-72
2022/03/19 00:48:13;;;;;;;17.83;7.50;;;3.40;99.90;;;;;;5109318;28;20392;-71
2022/03/19 00:50:41;;;;;;;15.90;6.80;;;3.30;99.90;;;;;;5111213;28;20193;-72
2022/03/19 00:53:09;;;;;;;16.67;6.97;;;3.30;99.90;;;;;;5100731;28;20205;-71
2022/03/19 00:55:35;;;;;;;11.60;6.27;;;3.20;99.90;;;;;;5102767;28;20550;-72
2022/03/19 00:58:06;;;;;;;11.67;5.90;;;3.20;99.90;;;;;;5111621;28;20208;-72
2022/03/19 01:00:33;;;;;;;16.03;6.87;;;3.10;99.90;;;;;;5111307;28;20242;-72
2022/03/19 01:03:00;;;;;;;10.27;5.73;;;3.10;99.90;;;;;;5114471;28;20224;-71
2022/03/19 01:05:27;;;;;;;13.30;6.23;;;2.90;99.90;;;;;;5116295;28;20215;-69
2022/03/19 01:07:56;;;;;;;12.87;6.37;;;2.80;99.90;;;;;;5117518;27;20255;-69
2022/03/19 01:10:26;;;;;;;12.97;5.60;;;2.70;99.90;;;;;;5100611;28;20219;-69
2022/03/19 01:12:54;;;;;;;11.97;5.60;;;2.50;99.90;;;;;;5103551;28;20208;-69
2022/03/19 01:15:22;;;;;;;9.70;5.73;;;2.10;99.90;;;;;;5102399;28;20198;-69
2022/03/19 01:17:49;;;;;;;12.10;6.17;;;2.00;99.90;;;;;;5095828;28;20296;-69
2022/03/19 01:20:17;;;;;;;8.33;5.37;;;2.10;99.90;;;;;;5105285;28;20197;-69
2022/03/19 01:22:46;;;;;;;15.87;5.80;;;2.10;99.90;;;;;;5108627;28;20261;-69
2022/03/19 01:25:14;;;;;;;11.70;5.87;;;2.10;99.90;;;;;;5112235;28;20577;-69
2022/03/19 01:27:45;;;;;;;12.63;6.20;;;2.10;99.90;;;;;;5108182;28;20228;-69
2022/03/19 01:30:13;;;;;;;13.50;6.20;;;2.10;99.90;;;;;;5105054;28;20201;-69
2022/03/19 01:32:41;;;;;;;12.83;6.83;;;2.10;99.90;;;;;;5098972;28;20208;-68
2022/03/19 01:35:09;;;;;;;14.23;6.00;;;2.30;99.90;;;;;;5113506;28;20197;-69
2022/03/19 01:37:37;;;;;;;13.17;6.60;;;2.40;99.90;;;;;;5114460;28;20208;-69
2022/03/19 01:40:05;;;;;;;12.67;6.30;;;2.40;99.90;;;;;;5106923;28;20251;-68
2022/03/19 01:42:34;;;;;;;14.47;6.57;;;2.40;99.90;;;;;;5114141;28;20671;-69
2022/03/19 01:45:04;;;;;;;16.37;6.83;;;2.40;99.90;;;;;;5101684;28;20197;-68
2022/03/19 01:47:33;;;;;;;14.63;6.73;;;2.60;99.90;;;;;;5112803;28;20193;-69
2022/03/19 01:50:00;;;;;;;19.17;7.10;;;2.70;99.90;;;;;;5112890;28;20288;-68
2022/03/19 01:52:28;;;;;;;23.13;7.80;;;2.90;99.90;;;;;;5114790;28;20591;-69
2022/03/19 01:54:55;;;;;;;16.63;6.63;;;2.90;99.90;;;;;;5104715;28;20201;-69
2022/03/19 01:57:25;;;;;;;16.47;7.03;;;3.00;99.90;;;;;;5098081;28;20229;-68
2022/03/19 01:59:53;;;;;;;19.47;7.87;;;2.90;99.90;;;;;;5095561;28;20223;-68
2022/03/19 02:02:23;;;;;;;20.70;6.83;;;2.70;99.90;;;;;;5114538;28;20217;-69
2022/03/19 02:04:50;;;;;;;16.13;6.73;;;2.60;99.90;;;;;;5113300;28;20204;-68
2022/03/19 02:07:17;;;;;;;12.13;6.10;;;2.50;99.90;;;;;;5102831;28;20573;-68
2022/03/19 02:09:44;;;;;;;12.80;6.37;;;2.40;99.90;;;;;;5114312;28;20254;-69
2022/03/19 02:12:11;;;;;;;15.80;6.27;;;2.30;99.90;;;;;;5099604;28;20255;-68
2022/03/19 02:14:41;;;;;;;15.33;6.27;;;2.20;99.90;;;;;;5099605;28;20201;-68
2022/03/19 02:17:10;;;;;;;15.30;5.70;;;2.10;99.90;;;;;;5113495;28;20193;-68
2022/03/19 02:19:47;;;;;;;13.67;5.70;;;2.10;99.90;;;;;;5112246;28;20197;-69
2022/03/19 02:22:15;;;;;;;10.80;5.73;;;1.90;99.90;;;;;;5095334;28;20224;-69
2022/03/19 02:27:27;;;;;;;14.33;5.80;;;1.90;99.90;;;;;;5092379;28;20220;-69
2022/03/19 02:29:56;;;;;;;15.37;6.20;;;1.90;99.90;;;;;;5112188;28;20228;-68
2022/03/19 02:32:23;;;;;;;15.30;6.13;;;1.90;99.90;;;;;;5113115;28;20226;-69
2022/03/19 02:34:50;;;;;;;14.53;6.50;;;1.90;99.90;;;;;;5113143;28;20201;-69
2022/03/19 02:37:18;;;;;;;16.83;6.27;;;1.80;99.90;;;;;;5108143;28;20676;-69
2022/03/19 02:39:46;;;;;;;17.43;5.90;;;1.90;99.90;;;;;;5113187;28;20619;-69
2022/03/19 02:42:16;;;;;;;19.23;6.73;;;1.90;99.90;;;;;;5108242;28;20225;-69
2022/03/19 02:44:44;;;;;;;12.27;6.13;;;1.80;99.90;;;;;;5112908;28;20637;-69
2022/03/19 02:47:11;;;;;;;16.60;6.10;;;1.70;99.90;;;;;;5111500;28;20193;-69
2022/03/19 02:49:38;;;;;;;14.83;6.50;;;1.80;99.90;;;;;;5113463;28;20198;-69
2022/03/19 02:52:06;;;;;;;18.47;6.83;;;1.80;99.90;;;;;;5108399;28;20245;-69
2022/03/19 02:54:33;;;;;;;13.80;5.53;;;1.80;99.90;;;;;;5096281;28;20193;-69
2022/03/19 02:57:03;;;;;;;17.60;6.20;;;1.70;99.90;;;;;;5112846;28;20189;-69
2022/03/19 02:59:31;;;;;;;15.33;6.30;;;1.60;99.90;;;;;;5112041;28;20201;-69
2022/03/19 03:02:00;;;;;;;15.93;6.27;;;1.60;99.90;;;;;;5111320;28;20248;-69
2022/03/19 03:04:28;;;;;;;10.53;5.50;;;1.70;99.90;;;;;;5112697;28;20242;-69
2022/03/19 03:06:57;;;;;;;11.30;6.03;;;1.80;99.90;;;;;;5111728;28;20228;-69
2022/03/19 03:09:26;;;;;;;13.57;5.73;;;1.80;99.90;;;;;;5113211;28;20201;-69
2022/03/19 03:11:54;;;;;;;14.00;6.13;;;1.60;99.90;;;;;;5103485;28;20194;-69
2022/03/19 03:14:22;;;;;;;14.03;6.50;;;1.50;99.90;;;;;;5111644;28;20240;-69
2022/03/19 03:16:52;;;;;;;15.63;6.23;;;1.50;99.90;;;;;;5110857;28;20193;-69
2022/03/19 03:19:20;;;;;;;14.43;6.50;;;1.40;99.90;;;;;;5092636;28;20606;-69
2022/03/19 03:21:48;;;;;;;16.47;6.53;;;1.40;99.90;;;;;;5109358;28;20240;-69
2022/03/19 03:24:15;;;;;;;15.33;6.93;;;1.50;99.90;;;;;;5098087;28;20693;-69
2022/03/19 03:26:42;;;;;;;19.73;7.67;;;1.60;99.90;;;;;;5112191;28;20250;-69
2022/03/19 03:29:10;;;;;;;17.43;8.00;;;1.70;99.90;;;;;;5112298;28;20246;-69
2022/03/19 03:31:38;;;;;;;16.57;6.73;;;1.70;99.90;;;;;;5101813;28;20260;-69
2022/03/19 03:34:06;;;;;;;17.83;7.30;;;1.70;99.90;;;;;;5109988;28;20236;-69
2022/03/19 03:36:34;;;;;;;20.23;7.07;;;1.60;99.90;;;;;;5112666;28;20200;-69
2022/03/19 03:39:01;;;;;;;18.67;7.67;;;1.50;99.90;;;;;;5110553;28;20643;-69
2022/03/19 03:41:28;;;;;;;17.00;6.77;;;1.50;99.90;;;;;;5104185;28;20285;-69
2022/03/19 03:43:55;;;;;;;16.60;6.80;;;1.70;99.90;;;;;;5091314;28;20217;-69
2022/03/19 03:46:22;;;;;;;20.43;8.63;;;1.60;99.90;;;;;;5103138;28;20256;-69
2022/03/19 03:48:50;;;;;;;20.97;9.13;;;1.50;99.90;;;;;;5111250;28;20228;-69
2022/03/19 03:51:17;;;;;;;20.07;7.83;;;1.60;99.90;;;;;;5111191;28;20272;-69
2022/03/19 03:53:45;;;;;;;17.23;7.10;;;1.70;99.90;;;;;;5106864;28;20235;-69
2022/03/19 03:56:13;;;;;;;15.27;6.40;;;1.60;99.90;;;;;;5111515;28;20197;-69
2022/03/19 03:58:41;;;;;;;18.63;6.73;;;1.50;99.90;;;;;;5111872;28;20740;-69
2022/03/19 04:01:08;;;;;;;16.87;6.97;;;1.40;99.90;;;;;;5109936;28;20197;-69
2022/03/19 04:03:36;;;;;;;17.17;7.27;;;1.20;99.90;;;;;;5112182;28;20270;-69
2022/03/19 04:06:04;;;;;;;15.43;8.20;;;1.10;99.90;;;;;;5110891;28;20232;-69
2022/03/19 04:08:32;;;;;;;14.33;7.17;;;1.10;99.90;;;;;;5094942;28;20258;-69
2022/03/19 04:10:59;;;;;;;17.07;6.90;;;1.00;99.90;;;;;;5109696;28;20212;-69
2022/03/19 04:13:26;;;;;;;23.63;7.67;;;0.90;99.90;;;;;;5110517;28;20205;-69
2022/03/19 04:15:53;;;;;;;19.97;7.63;;;0.90;99.90;;;;;;5107701;28;20202;-69
2022/03/19 04:18:20;;;;;;;17.30;7.17;;;1.00;99.90;;;;;;5091380;28;20233;-69
2022/03/19 04:20:47;;;;;;;18.33;7.77;;;1.00;99.90;;;;;;5108404;28;20212;-69
2022/03/19 04:23:16;;;;;;;19.20;7.77;;;1.10;99.90;;;;;;5100732;28;20282;-69
2022/03/19 04:25:43;;;;;;;17.10;7.03;;;1.00;99.90;;;;;;5109402;28;20643;-69
2022/03/19 04:28:11;;;;;;;19.80;7.60;;;0.90;99.90;;;;;;5099695;28;20204;-69
2022/03/19 04:30:40;;;;;;;18.50;7.57;;;0.90;99.90;;;;;;5110684;28;20201;-69
2022/03/19 04:33:08;;;;;;;18.27;7.03;;;1.00;99.90;;;;;;5112025;28;20211;-72
2022/03/19 04:38:23;;;;;;;15.77;6.50;;;1.00;99.90;;;;;;5103659;28;20246;-72
2022/03/19 04:40:51;;;;;;;22.27;8.10;;;0.90;99.90;;;;;;5110950;28;20197;-73
2022/03/19 04:43:18;;;;;;;19.37;7.17;;;1.00;99.90;;;;;;5107799;28;20317;-72
2022/03/19 04:45:45;;;;;;;17.20;7.70;;;1.10;99.90;;;;;;5110709;28;20531;-72
2022/03/19 04:48:13;;;;;;;17.20;8.03;;;1.20;99.90;;;;;;5111022;28;20250;-73
2022/03/19 04:50:41;;;;;;;20.57;7.93;;;1.20;99.90;;;;;;5111400;28;20242;-72
2022/03/19 04:53:08;;;;;;;15.90;7.00;;;1.20;99.90;;;;;;5096711;28;20209;-73
2022/03/19 04:55:38;;;;;;;15.67;7.17;;;1.10;99.90;;;;;;5109248;28;20232;-73
2022/03/19 04:58:06;;;;;;;16.27;7.17;;;1.10;99.90;;;;;;5092340;28;20202;-73
2022/03/19 05:00:33;;;;;;;16.67;7.67;;;0.90;99.90;;;;;;5110413;28;20200;-72
2022/03/19 05:03:00;;;;;;;14.80;7.07;;;1.00;99.90;;;;;;5111419;28;20273;-73
2022/03/19 05:05:27;;;;;;;13.50;6.50;;;0.80;99.90;;;;;;5110724;28;20639;-73
2022/03/19 05:07:55;;;;;;;20.80;7.30;;;0.70;99.90;;;;;;5107469;28;20200;-73
2022/03/19 05:13:09;;;;;;;32.03;14.77;;;0.80;99.90;;;;;;5100460;28;20604;-73
2022/03/19 05:15:37;;;;;;;19.60;7.80;;;0.80;99.90;;;;;;5095352;28;20208;-73
2022/03/19 05:18:04;;;;;;;16.60;7.10;;;0.70;99.90;;;;;;5091520;28;20534;-73
2022/03/19 05:20:32;;;;;;;20.13;7.33;;;0.80;99.90;;;;;;5096573;28;20212;-73
2022/03/19 05:22:59;;;;;;;20.27;7.40;;;0.80;99.90;;;;;;5110749;28;20600;-73
2022/03/19 05:25:26;;;;;;;20.23;7.03;;;0.90;99.90;;;;;;5109578;28;20552;-73
2022/03/19 05:27:53;;;;;;;19.77;6.90;;;0.80;99.90;;;;;;5110329;28;20229;-73
2022/03/19 05:30:22;;;;;;;17.70;7.47;;;0.80;99.90;;;;;;5110448;28;20193;-73
2022/03/19 05:32:49;;;;;;;15.83;6.67;;;0.80;99.90;;;;;;5111285;28;20262;-73
2022/03/19 05:35:18;;;;;;;17.63;7.10;;;0.90;99.90;;;;;;5110353;28;20196;-73
2022/03/19 05:37:45;;;;;;;17.97;7.77;;;0.90;99.90;;;;;;5091860;28;20213;-73
2022/03/19 05:40:13;;;;;;;19.63;7.50;;;1.00;99.90;;;;;;5103793;28;20200;-73
2022/03/19 05:42:41;;;;;;;17.03;7.00;;;1.10;99.90;;;;;;5102588;28;20216;-73
2022/03/19 05:45:09;;;;;;;16.53;6.93;;;1.00;99.90;;;;;;5102616;28;20201;-73
2022/03/19 05:47:38;;;;;;;16.33;7.60;;;1.10;99.90;;;;;;5103149;28;20205;-73
2022/03/19 05:50:06;;;;;;;18.03;7.27;;;1.10;99.90;;;;;;5111884;28;20196;-73
2022/03/19 05:52:33;;;;;;;19.20;7.53;;;1.10;99.90;;;;;;5113297;28;20197;-73
2022/03/19 05:55:00;;;;;;;17.40;6.77;;;1.20;99.90;;;;;;5114497;28;20197;-73
2022/03/19 05:57:27;;;;;;;20.57;8.33;;;1.40;99.90;;;;;;5113203;28;20237;-73
2022/03/19 05:59:54;;;;;;;19.57;7.10;;;1.60;99.90;;;;;;5114774;28;20193;-73
2022/03/19 06:02:21;;;;;;;20.23;6.53;;;1.30;99.90;;;;;;5114583;28;20254;-73
2022/03/19 06:04:50;;;;;;;17.70;6.93;;;1.10;99.90;;;;;;5114595;28;20242;-73
2022/03/19 06:07:17;;;;;;;19.27;7.60;;;1.30;99.90;;;;;;5113612;28;20608;-73
2022/03/19 06:09:44;;;;;;;16.80;6.93;;;2.10;99.90;;;;;;5113852;28;20605;-73
2022/03/19 06:12:11;;;;;;;17.90;7.03;;;2.20;99.90;;;;;;5113432;28;20205;-73
2022/03/19 06:14:39;;;;;;;17.03;8.03;;;2.30;99.90;;;;;;5112825;28;20204;-73
2022/03/19 06:17:07;;;;;;;14.03;6.40;;;2.50;99.90;;;;;;5099107;28;20198;-73
2022/03/19 06:19:33;;;;;;;15.93;7.10;;;2.50;99.90;;;;;;5108919;28;20278;-73
2022/03/19 06:22:02;;;;;;;16.40;7.23;;;2.50;99.90;;;;;;5112258;28;20643;-73
2022/03/19 06:24:29;;;;;;;14.40;7.00;;;2.60;99.90;;;;;;5114100;28;20217;-73
2022/03/19 06:26:56;;;;;;;16.23;7.10;;;2.30;58.90;;;;;;5107962;28;20198;-73
2022/03/19 06:29:24;;;;;;;17.73;7.37;;;2.10;1.00;;;;;;5112766;28;20200;-73
2022/03/19 06:31:51;;;;;;;19.20;7.77;;;2.20;1.00;;;;;;5112270;28;20728;-73
2022/03/19 06:34:18;;;;;;;19.70;7.30;;;2.30;1.00;;;;;;5110515;28;20263;-72
2022/03/19 06:39:30;;;;;;;16.87;8.43;;;2.40;1.00;;;;;;5113011;28;20246;-72
2022/03/19 06:41:58;;;;;;;21.23;7.17;;;2.40;1.00;;;;;;5111458;28;20246;-72
2022/03/19 06:44:25;;;;;;;19.83;8.63;;;2.30;1.00;;;;;;5111891;28;20220;-72
2022/03/19 06:46:52;;;;;;;11.93;6.50;;;2.50;1.00;;;;;;5112187;28;20193;-72
2022/03/19 06:49:19;;;;;;;14.97;6.97;;;2.70;1.00;;;;;;5113599;28;20232;-72
2022/03/19 06:51:46;;;;;;;18.50;7.87;;;2.90;1.00;;;;;;5110015;28;20212;-73
2022/03/19 06:54:13;;;;;;;15.03;6.97;;;3.20;1.00;;;;;;5113084;28;20201;-72
2022/03/19 06:56:42;;;;;;;8.87;4.87;;;3.40;1.00;;;;;;5107236;28;20209;-73
2022/03/19 06:59:08;;;;;;;8.57;4.63;;;3.20;1.00;;;;;;5113086;28;20243;-72
2022/03/19 07:01:36;;;;;;;11.77;6.47;;;2.90;1.00;;;;;;5111663;28;20197;-72
2022/03/19 07:04:04;;;;;;;16.07;7.47;;;3.10;1.00;;;;;;5113270;28;20584;-72
2022/03/19 07:06:32;;;;;;;19.57;8.20;;;3.20;72.70;;;;;;5104850;28;20220;-72
2022/03/19 07:08:59;;;;;;;15.80;8.00;;;3.40;99.90;;;;;;5111992;28;20197;-72
2022/03/19 07:11:26;;;;;;;17.87;7.63;;;3.40;99.90;;;;;;5115948;27;20245;-71
2022/03/19 07:13:54;;;;;;;23.67;9.70;;;3.60;99.90;;;;;;5132598;27;20208;-71
2022/03/19 07:16:21;;;;;;;22.53;9.47;;;4.30;99.90;;;;;;5112534;27;20197;-72
2022/03/19 07:18:48;;;;;;;15.70;8.03;;;4.70;1.00;;;;;;5112766;28;20250;-71
2022/03/19 07:21:16;;;;;;;20.43;8.17;;;4.60;1.00;;;;;;5107339;28;20210;-72
2022/03/19 07:23:43;;;;;;;16.73;7.83;;;4.50;1.00;;;;;;5104244;28;20628;-71
2022/03/19 07:26:10;;;;;;;18.83;7.80;;;4.40;1.00;;;;;;5091954;28;20204;-71
2022/03/19 07:28:37;;;;;;;20.37;7.37;;;4.70;1.00;;;;;;5115536;27;20699;-71
2022/03/19 07:31:06;;;;;;;18.80;7.13;;;4.70;1.00;;;;;;5121956;27;20663;-71
2022/03/19 07:33:34;;;;;;;17.90;7.60;;;4.60;1.00;;;;;;5092052;28;20247;-71
2022/03/19 07:36:02;;;;;;;19.83;7.10;;;4.70;1.00;;;;;;5090559;28;20220;-72
2022/03/19 07:38:31;;;;;;;18.43;7.47;;;5.00;1.00;;;;;;5092498;28;20716;-68
2022/03/19 07:43:43;;;;;;;17.37;7.27;;;5.80;93.20;;;;;;5110078;28;20227;-68
2022/03/19 07:46:12;;;;;;;21.63;7.40;;;6.50;99.90;;;;;;5106342;28;20813;-69
2022/03/19 07:48:39;;;;;;;19.87;7.87;;;7.10;1.00;;;;;;5110173;28;20277;-69
2022/03/19 07:51:09;;;;;;;19.37;7.77;;;7.60;1.00;;;;;;5108313;28;20894;-69
2022/03/19 07:53:37;;;;;;;15.80;7.30;;;7.70;1.00;;;;;;5094993;28;20533;-69
2022/03/19 07:56:05;;;;;;;20.83;7.20;;;8.50;24.40;;;;;;5097028;28;20193;-72
2022/03/19 07:58:32;;;;;;;17.00;6.37;;;8.50;1.00;;;;;;5112597;28;20265;-69
2022/03/19 08:00:58;;;;;;;20.60;7.40;;;7.40;1.00;;;;;;5108229;28;20197;-68
2022/03/19 08:03:27;;;;;;;14.60;6.40;;;7.90;1.00;;;;;;5092326;28;20205;-69
2022/03/19 08:05:55;;;;;;;18.77;7.50;;;6.90;99.90;;;;;;5099403;28;20196;-68
2022/03/19 08:08:21;;;;;;;14.50;6.57;;;6.20;1.00;;;;;;5112758;28;20288;-68
2022/03/19 08:10:48;;;;;;;18.23;6.73;;;6.00;1.00;;;;;;5108519;28;20197;-68
2022/03/19 08:13:15;;;;;;;15.47;6.80;;;7.40;1.00;;;;;;5100216;28;20558;-68
2022/03/19 08:15:42;;;;;;;16.87;6.83;;;6.30;1.00;;;;;;5096798;28;20581;-68
2022/03/19 08:18:12;;;;;;;15.70;6.33;;;7.60;1.00;;;;;;5112427;28;20208;-68
2022/03/19 08:20:40;;;;;;;16.37;5.70;;;7.90;1.00;;;;;;5112593;28;20201;-68
2022/03/19 08:23:07;;;;;;;17.00;6.67;;;7.20;1.00;;;;;;5110898;28;20193;-68
2022/03/19 08:25:34;;;;;;;13.00;6.20;;;7.70;1.00;;;;;;5112268;28;20217;-68
2022/03/19 08:28:01;;;;;;;13.90;5.47;;;7.50;1.00;;;;;;5112276;28;20615;-69
2022/03/19 08:30:28;;;;;;;12.33;4.93;;;7.10;1.00;;;;;;5111743;28;20193;-68
2022/03/19 08:32:54;;;;;;;13.90;5.47;;;6.80;55.20;;;;;;5092333;28;20544;-68
2022/03/19 08:35:21;;;;;;;16.00;5.47;;;6.80;1.00;;;;;;5095912;28;20193;-69
2022/03/19 08:40:15;;;;;;;15.70;4.93;;;6.80;99.90;;;;;;5112126;28;20203;-68
2022/03/19 08:40:35;;;;;;;12.23;5.07;;;6.80;1.00;;;;;;5110647;28;20193;-68
2022/03/19 08:43:02;;;;;;;14.57;5.77;;;7.00;99.90;;;;;;5102710;28;20196;-68
2022/03/19 08:45:29;;;;;;;19.73;6.63;;;7.10;1.00;;;;;;5111595;28;20750;-68
2022/03/19 08:47:56;;;;;;;17.80;6.73;;;7.10;1.00;;;;;;5098500;28;20204;-68
2022/03/19 08:50:26;;;;;;;14.83;6.17;;;7.00;99.90;;;;;;5109273;28;20197;-68
2022/03/19 08:52:54;;;;;;;17.70;6.80;;;7.20;1.00;;;;;;5103719;28;20278;-68
2022/03/19 08:55:21;;;;;;;20.13;7.13;;;7.10;99.90;;;;;;5112295;28;20220;-68
2022/03/19 08:57:48;;;;;;;16.43;6.30;;;7.10;1.00;;;;;;5100743;28;20566;-68
2022/03/19 09:00:15;;;;;;;10.00;4.63;;;7.20;11.30;;;;;;5111580;28;20577;-68
2022/03/19 09:02:42;;;;;;;13.80;4.40;;;7.40;1.00;;;;;;5112044;28;20201;-68
2022/03/19 09:05:10;;;;;;;15.40;4.37;;;7.40;1.00;;;;;;5111527;28;20227;-68
2022/03/19 09:07:37;;;;;;;11.53;4.10;;;7.50;1.00;;;;;;5124303;28;20214;-68
2022/03/19 09:10:06;;;;;;;10.70;4.33;;;7.50;1.00;;;;;;5128110;28;20668;-68
2022/03/19 09:12:33;;;;;;;10.17;4.63;;;7.70;99.90;;;;;;5103406;28;20201;-68
2022/03/19 09:15:00;;;;;;;11.37;4.63;;;7.80;1.00;;;;;;5095578;28;20198;-68
2022/03/19 09:17:27;;;;;;;15.73;4.40;;;7.90;1.00;;;;;;5092031;28;20206;-68
2022/03/19 09:19:54;;;;;;;12.47;4.53;;;7.90;1.00;;;;;;5095369;28;20208;-68
2022/03/19 09:22:21;;;;;;;12.27;4.17;;;8.10;99.90;;;;;;5107754;28;20204;-68
2022/03/19 09:24:48;;;;;;;13.37;4.27;;;8.20;99.90;;;;;;5098469;28;20248;-68
2022/03/19 09:27:17;;;;;;;13.57;4.53;;;8.40;1.00;;;;;;5110180;28;20205;-69
2022/03/19 09:29:44;;;;;;;20.40;5.67;;;8.30;1.00;;;;;;5098572;28;20205;-68
2022/03/19 09:32:12;;;;;;;10.17;4.03;;;8.50;1.00;;;;;;5098976;28;20562;-68
2022/03/19 09:34:39;;;;;;;11.57;4.10;;;8.30;1.00;;;;;;5100133;28;20194;-68
2022/03/19 09:37:06;;;;;;;13.03;4.77;;;8.80;1.00;;;;;;5095460;28;20300;-68
2022/03/19 09:39:33;;;;;;;14.17;4.73;;;9.20;1.00;;;;;;5098589;28;20197;-68
2022/03/19 09:42:01;;;;;;;9.30;3.73;;;9.10;1.00;;;;;;5095669;28;20468;-68
2022/03/19 09:44:29;;;;;;;10.17;4.03;;;9.30;99.90;;;;;;5097158;28;20221;-68
2022/03/19 09:46:56;;;;;;;10.37;3.90;;;9.40;1.00;;;;;;5095182;28;20573;-68
2022/03/19 09:49:23;;;;;;;10.20;4.10;;;9.20;99.90;;;;;;5099840;28;20229;-68
2022/03/19 09:51:54;;;;;;;11.50;4.07;;;9.20;1.00;;;;;;5095441;28;20209;-68
2022/03/19 09:54:22;;;;;;;8.90;3.60;;;9.60;1.00;;;;;;5098303;28;20214;-68
2022/03/19 09:56:49;;;;;;;6.37;2.80;;;9.40;99.90;;;;;;5099387;28;20201;-68
2022/03/19 09:59:16;;;;;;;11.80;3.93;;;9.80;1.00;;;;;;5097288;28;20621;-68
2022/03/19 10:01:46;;;;;;;11.27;3.43;;;9.30;99.90;;;;;;5095022;28;20212;-68
2022/03/19 10:04:17;;;;;;;11.03;3.77;;;9.70;1.00;;;;;;5095666;28;20205;-68
2022/03/19 10:09:42;;;;;;;5.87;2.63;;;9.70;1.00;;;;;;5113974;28;20235;-68
2022/03/19 10:12:15;;;;;;;8.93;3.30;;;9.70;1.00;;;;;;5093833;28;20202;-68
2022/03/19 10:14:45;;;;;;;7.93;3.20;;;9.80;99.90;;;;;;5102680;28;20193;-68
2022/03/19 10:17:29;;;;;;;9.87;3.90;;;9.60;1.00;;;;;;5114691;28;20200;-68
2022/03/19 10:20:00;;;;;;;10.53;2.93;;;10.00;1.00;;;;;;5114952;28;20189;-68
2022/03/19 10:22:29;;;;;;;11.40;3.43;;;9.80;1.00;;;;;;5115153;28;20353;-68
2022/03/19 10:24:58;;;;;;;9.90;2.70;;;10.20;99.90;;;;;;5114639;28;20315;-68
2022/03/19 10:27:25;;;;;;;9.07;2.97;;;9.80;1.00;;;;;;5114486;28;20205;-68
2022/03/19 10:30:12;;;;;;;10.97;2.97;;;10.00;1.00;;;;;;5114608;28;20205;-68
2022/03/19 10:32:41;;;;;;;11.57;3.27;;;9.80;1.00;;;;;;5115254;28;20200;-68
2022/03/19 10:35:26;;;;;;;10.43;2.63;;;10.00;99.90;;;;;;5114174;28;20193;-68
2022/03/19 10:37:54;;;;;;;8.13;2.50;;;10.40;1.00;;;;;;5114488;28;20201;-68
2022/03/19 10:40:21;;;;;;;11.47;3.30;;;10.40;1.00;;;;;;5112721;28;20564;-68
2022/03/19 10:42:51;;;;;;;8.07;2.57;;;10.00;99.90;;;;;;5114729;28;20290;-68
2022/03/19 10:45:23;;;;;;;5.23;1.93;;;10.40;1.00;;;;;;5114163;28;20216;-68
2022/03/19 10:47:51;;;;;;;6.80;2.20;;;10.20;99.90;;;;;;5114217;28;20203;-68
2022/03/19 10:50:20;;;;;;;8.47;2.77;;;10.40;99.90;;;;;;5107517;28;20648;-68
2022/03/19 10:52:49;;;;;;;7.77;2.50;;;10.40;99.90;;;;;;5104610;28;20209;-68
2022/03/19 10:55:16;;;;;;;8.20;2.70;;;10.40;1.00;;;;;;5103330;28;20233;-68
2022/03/19 10:57:44;;;;;;;11.70;2.20;;;10.90;99.90;;;;;;5105164;28;20201;-68
2022/03/19 11:00:12;;;;;;;5.43;2.40;;;10.70;99.90;;;;;;5104928;28;20206;-68
2022/03/19 11:02:44;;;;;;;4.17;2.07;;;10.70;1.00;;;;;;5102292;28;20656;-68
2022/03/19 11:05:13;;;;;;;11.83;2.40;;;10.60;1.00;;;;;;5106758;28;20296;-68
2022/03/19 11:07:43;;;;;;;9.23;2.73;;;10.60;1.00;;;;;;5105200;28;20200;-68
2022/03/19 11:10:11;;;;;;;7.57;2.47;;;10.90;99.90;;;;;;5105658;28;20586;-68
2022/03/19 11:12:41;;;;;;;9.10;2.57;;;10.60;88.70;;;;;;5100273;28;20661;-68
2022/03/19 11:15:10;;;;;;;7.67;2.47;;;10.80;1.00;;;;;;5107369;28;20251;-68
2022/03/19 11:17:39;;;;;;;7.27;2.10;;;11.00;99.90;;;;;;5105950;28;20201;-68
2022/03/19 11:20:09;;;;;;;5.73;2.63;;;11.10;99.90;;;;;;5106810;28;20207;-68
2022/03/19 11:22:41;;;;;;;6.07;2.33;;;11.00;1.00;;;;;;5103406;28;20209;-68
2022/03/19 11:25:14;;;;;;;8.07;2.00;;;11.10;1.00;;;;;;5106057;28;20317;-68
2022/03/19 11:27:44;;;;;;;6.23;2.07;;;11.10;1.00;;;;;;5104947;28;20288;-68
2022/03/19 11:30:24;;;;;;;6.07;2.33;;;11.20;1.00;;;;;;5105873;28;20689;-68
2022/03/19 11:33:11;;;;;;;7.33;1.77;;;11.40;1.00;;;;;;5106753;28;20450;-68
2022/03/19 11:35:40;;;;;;;4.10;1.30;;;11.40;1.00;;;;;;5097116;28;20258;-68
2022/03/19 11:38:11;;;;;;;5.40;1.87;;;11.20;1.00;;;;;;5110644;28;20667;-68
2022/03/19 11:40:42;;;;;;;4.80;1.77;;;11.40;1.00;;;;;;5100550;28;20200;-68
2022/03/19 11:43:11;;;;;;;8.13;2.27;;;11.50;1.00;;;;;;5103885;28;20679;-68
2022/03/19 11:45:40;;;;;;;5.60;1.80;;;11.40;1.00;;;;;;5102356;28;20218;-68
2022/03/19 11:48:38;;;;;;;4.83;1.50;;;11.40;1.00;;;;;;5097521;28;20201;-68
2022/03/19 11:51:20;;;;;;;3.03;1.33;;;11.00;1.00;;;;;;5106585;28;20299;-68
2022/03/19 11:53:59;;;;;;;4.10;1.50;;;11.50;1.00;;;;;;5104648;28;20216;-68
2022/03/19 11:56:29;;;;;;;4.93;1.60;;;11.70;1.00;;;;;;5103697;28;20214;-68
2022/03/19 11:58:56;;;;;;;4.97;1.43;;;12.00;1.00;;;;;;5100323;28;20201;-68
2022/03/19 12:01:45;;;;;;;4.50;1.37;;;12.30;1.00;;;;;;5103679;28;20201;-68
2022/03/19 12:04:12;;;;;;;5.77;1.33;;;12.30;1.00;;;;;;5104742;28;20607;-68
2022/03/19 12:06:50;;;;;;;2.77;0.80;;;11.70;99.90;;;;;;5097593;28;20225;-68
2022/03/19 12:09:19;;;;;;;4.17;1.30;;;12.00;99.90;;;;;;5110082;28;20197;-68
2022/03/19 12:12:08;;;;;;;5.00;1.40;;;12.00;99.90;;;;;;5102396;28;20201;-68
2022/03/19 12:14:35;;;;;;;1.53;1.20;;;11.90;99.90;;;;;;5106019;28;20233;-68
2022/03/19 12:17:16;;;;;;;3.80;1.27;;;12.40;1.00;;;;;;5104719;28;20258;-68
2022/03/19 12:19:53;;;;;;;4.70;1.43;;;12.00;99.90;;;;;;5103739;28;20203;-68
2022/03/19 12:22:31;;;;;;;6.30;1.40;;;11.30;99.90;;;;;;5105011;28;20200;-68
2022/03/19 12:25:16;;;;;;;3.40;0.90;;;12.10;99.90;;;;;;5095718;28;20197;-68
2022/03/19 12:27:50;;;;;;;1.57;0.60;;;12.20;99.90;;;;;;5105397;28;20618;-68
2022/03/19 12:30:18;;;;;;;6.07;1.17;;;11.80;99.90;;;;;;5102292;28;20204;-68
2022/03/19 12:32:48;;;;;;;3.43;0.93;;;11.70;99.90;;;;;;5109808;28;20239;-68
2022/03/19 12:35:14;;;;;;;1.40;0.87;;;11.70;99.90;;;;;;5105008;28;20200;-68
2022/03/19 12:37:52;;;;;;;4.70;1.40;;;11.60;99.90;;;;;;5106746;28;20445;-68
2022/03/19 12:40:25;;;;;;;2.83;1.10;;;11.40;99.90;;;;;;5104668;28;20208;-68
2022/03/19 12:42:53;;;;;;;3.83;1.13;;;11.10;1.00;;;;;;5105345;28;20690;-68
2022/03/19 12:45:35;;;;;;;2.87;1.50;;;10.70;1.00;;;;;;5099112;28;20220;-68
2022/03/19 12:48:04;;;;;;;5.63;1.37;;;10.60;1.00;;;;;;5098302;28;20201;-71
2022/03/19 12:50:32;;;;;;;6.20;1.70;;;11.10;99.90;;;;;;5104070;28;20613;-72
2022/03/19 12:52:59;;;;;;;3.70;1.70;;;11.60;1.00;;;;;;5096245;28;20193;-70
2022/03/19 12:55:27;;;;;;;4.50;1.57;;;11.70;99.90;;;;;;5100255;28;20202;-71
2022/03/19 12:57:57;;;;;;;1.80;1.43;;;11.90;99.90;;;;;;5107427;28;20211;-71
2022/03/19 13:00:25;;;;;;;2.80;1.40;;;11.80;99.90;;;;;;5104589;28;20210;-70
2022/03/19 13:02:54;;;;;;;5.07;1.33;;;11.90;99.90;;;;;;5105015;28;20223;-70
2022/03/19 13:05:21;;;;;;;5.53;1.53;;;11.80;99.90;;;;;;5106435;27;20244;-70
2022/03/19 13:08:01;;;;;;;4.63;1.50;;;11.80;99.90;;;;;;5100244;28;20215;-70
2022/03/19 13:10:29;;;;;;;1.63;1.30;;;11.40;99.90;;;;;;5106210;28;20253;-72
2022/03/19 13:13:06;;;;;;;4.70;1.53;;;11.30;99.90;;;;;;5106853;28;20652;-72
2022/03/19 13:15:33;;;;;;;5.07;1.33;;;11.20;99.90;;;;;;5103801;28;20201;-72